sensor_id;sensor_type;location;lat;lon;timestamp;temperature;humidity
2571;DHT22;1295;51.130;6.732;2023-11-18T00:01:56;7.20;99.90
2571;DHT22;1295;51.130;6.732;2023-11-18T00:04:22;7.20;99.90
2571;DHT22;1295;51.130;6.732;2023-11-18T00:06:48;7.20;99.90
2571;DHT22;1295;51.130;6.732;2023-11-18T00:09:14;7.20;99.90
2571;DHT22;1295;51.130;6.732;2023-11-18T00:11:41;7.20;99.90
2571;DHT22;1295;51.130;6.732;2023-11-18T00:14:06;7.20;99.90
2571;DHT22;1295;51.130;6.732;2023-11-18T00:16:33;7.00;99.90
2571;DHT22;1295;51.130;6.732;2023-11-18T00:18:58;7.00;99.90
2571;DHT22;1295;51.130;6.732;2023-11-18T00:21:24;7.10;99.90
2571;DHT22;1295;51.130;6.732;2023-11-18T00:23:50;7.20;99.90
2571;DHT22;1295;51.130;6.732;2023-11-18T00:26:15;7.00;99.90
2571;DHT22;1295;51.130;6.732;2023-11-18T00:28:41;7.00;99.90
2571;DHT22;1295;51.130;6.732;2023-11-18T00:31:07;7.10;99.90
2571;DHT22;1295;51.130;6.732;2023-11-18T00:33:32;7.10;99.90
2571;DHT22;1295;51.130;6.732;2023-11-18T00:35:59;7.20;99.90
2571;DHT22;1295;51.130;6.732;2023-11-18T00:38:24;7.20;99.90
2571;DHT22;1295;51.130;6.732;2023-11-18T00:40:51;7.20;99.90
2571;DHT22;1295;51.130;6.732;2023-11-18T00:43:16;7.20;99.90
2571;DHT22;1295;51.130;6.732;2023-11-18T00:45:42;7.20;99.90
2571;DHT22;1295;51.130;6.732;2023-11-18T00:48:08;7.20;99.90
2571;DHT22;1295;51.130;6.732;2023-11-18T00:50:33;7.20;99.90
2571;DHT22;1295;51.130;6.732;2023-11-18T00:52:59;7.20;99.90
2571;DHT22;1295;51.130;6.732;2023-11-18T00:55:25;7.20;99.90
2571;DHT22;1295;51.130;6.732;2023-11-18T00:57:50;7.20;99.90
2571;DHT22;1295;51.130;6.732;2023-11-18T01:00:17;7.20;99.90
2571;DHT22;1295;51.130;6.732;2023-11-18T01:02:48;7.20;99.90
2571;DHT22;1295;51.130;6.732;2023-11-18T01:05:14;7.20;99.90
2571;DHT22;1295;51.130;6.732;2023-11-18T01:07:40;7.00;99.90
2571;DHT22;1295;51.130;6.732;2023-11-18T01:10:07;6.90;99.90
2571;DHT22;1295;51.130;6.732;2023-11-18T01:12:33;7.10;99.90
2571;DHT22;1295;51.130;6.732;2023-11-18T01:14:59;7.10;99.90
2571;DHT22;1295;51.130;6.732;2023-11-18T01:17:24;6.80;99.90
2571;DHT22;1295;51.130;6.732;2023-11-18T01:19:50;6.90;99.90
2571;DHT22;1295;51.130;6.732;2023-11-18T01:22:16;7.00;99.90
2571;DHT22;1295;51.130;6.732;2023-11-18T01:24:41;6.80;99.90
2571;DHT22;1295;51.130;6.732;2023-11-18T01:27:07;7.00;99.90
2571;DHT22;1295;51.130;6.732;2023-11-18T01:29:34;7.10;99.90
2571;DHT22;1295;51.130;6.732;2023-11-18T01:31:59;7.10;99.90
2571;DHT22;1295;51.130;6.732;2023-11-18T01:34:25;7.00;99.90
2571;DHT22;1295;51.130;6.732;2023-11-18T01:36:52;6.80;99.90
2571;DHT22;1295;51.130;6.732;2023-11-18T01:39:17;6.80;99.90
2571;DHT22;1295;51.130;6.732;2023-11-18T01:41:43;7.00;99.90
2571;DHT22;1295;51.130;6.732;2023-11-18T01:44:14;6.80;99.90
2571;DHT22;1295;51.130;6.732;2023-11-18T01:46:40;6.80;99.90
2571;DHT22;1295;51.130;6.732;2023-11-18T01:49:05;6.50;99.90
2571;DHT22;1295;51.130;6.732;2023-11-18T01:51:31;6.90;99.90
2571;DHT22;1295;51.130;6.732;2023-11-18T01:53:57;6.90;99.90
2571;DHT22;1295;51.130;6.732;2023-11-18T01:56:23;6.90;99.90
2571;DHT22;1295;51.130;6.732;2023-11-18T01:58:48;7.00;99.90
2571;DHT22;1295;51.130;6.732;2023-11-18T02:01:14;7.00;99.90
2571;DHT22;1295;51.130;6.732;2023-11-18T02:03:39;6.90;99.90
2571;DHT22;1295;51.130;6.732;2023-11-18T02:06:06;7.10;99.90
2571;DHT22;1295;51.130;6.732;2023-11-18T02:08:33;7.10;99.90
2571;DHT22;1295;51.130;6.732;2023-11-18T02:11:00;7.10;99.90
2571;DHT22;1295;51.130;6.732;2023-11-18T02:13:28;7.10;99.90
2571;DHT22;1295;51.130;6.732;2023-11-18T02:15:53;7.10;99.90
2571;DHT22;1295;51.130;6.732;2023-11-18T02:18:18;7.00;99.90
2571;DHT22;1295;51.130;6.732;2023-11-18T02:20:43;7.00;99.90
2571;DHT22;1295;51.130;6.732;2023-11-18T02:23:10;6.60;99.90
2571;DHT22;1295;51.130;6.732;2023-11-18T02:25:40;6.60;99.90
2571;DHT22;1295;51.130;6.732;2023-11-18T02:28:01;6.80;99.90
2571;DHT22;1295;51.130;6.732;2023-11-18T02:30:27;6.80;99.90
2571;DHT22;1295;51.130;6.732;2023-11-18T02:32:58;7.00;99.90
2571;DHT22;1295;51.130;6.732;2023-11-18T02:35:32;6.50;99.90
2571;DHT22;1295;51.130;6.732;2023-11-18T02:37:57;6.80;99.90
2571;DHT22;1295;51.130;6.732;2023-11-18T02:40:25;7.00;99.90
2571;DHT22;1295;51.130;6.732;2023-11-18T02:42:48;7.00;99.90
2571;DHT22;1295;51.130;6.732;2023-11-18T02:45:14;7.00;99.90
2571;DHT22;1295;51.130;6.732;2023-11-18T02:47:44;7.10;99.90
2571;DHT22;1295;51.130;6.732;2023-11-18T02:50:10;7.00;99.90
2571;DHT22;1295;51.130;6.732;2023-11-18T02:52:35;7.00;99.90
2571;DHT22;1295;51.130;6.732;2023-11-18T02:55:01;7.00;99.90
2571;DHT22;1295;51.130;6.732;2023-11-18T02:57:26;7.00;99.90
2571;DHT22;1295;51.130;6.732;2023-11-18T02:59:52;7.00;99.90
2571;DHT22;1295;51.130;6.732;2023-11-18T03:02:18;7.00;99.90
2571;DHT22;1295;51.130;6.732;2023-11-18T03:04:43;7.00;99.90
2571;DHT22;1295;51.130;6.732;2023-11-18T03:07:09;7.10;99.90
2571;DHT22;1295;51.130;6.732;2023-11-18T03:09:35;6.60;99.90
2571;DHT22;1295;51.130;6.732;2023-11-18T03:12:02;6.60;99.90
2571;DHT22;1295;51.130;6.732;2023-11-18T03:14:27;6.90;99.90
2571;DHT22;1295;51.130;6.732;2023-11-18T03:16:53;6.90;99.90
2571;DHT22;1295;51.130;6.732;2023-11-18T03:19:18;6.90;99.90
2571;DHT22;1295;51.130;6.732;2023-11-18T03:21:50;7.00;99.90
2571;DHT22;1295;51.130;6.732;2023-11-18T03:24:10;7.00;99.90
2571;DHT22;1295;51.130;6.732;2023-11-18T03:26:36;7.00;99.90
2571;DHT22;1295;51.130;6.732;2023-11-18T03:29:02;6.60;99.90
2571;DHT22;1295;51.130;6.732;2023-11-18T03:31:28;6.60;99.90
2571;DHT22;1295;51.130;6.732;2023-11-18T03:33:55;6.90;99.90
2571;DHT22;1295;51.130;6.732;2023-11-18T03:36:20;6.90;99.90
2571;DHT22;1295;51.130;6.732;2023-11-18T03:38:46;6.70;99.90
2571;DHT22;1295;51.130;6.732;2023-11-18T03:41:12;6.60;99.90
2571;DHT22;1295;51.130;6.732;2023-11-18T03:43:38;6.60;99.90
2571;DHT22;1295;51.130;6.732;2023-11-18T03:46:04;6.50;99.90
2571;DHT22;1295;51.130;6.732;2023-11-18T03:48:30;6.50;99.90
2571;DHT22;1295;51.130;6.732;2023-11-18T03:50:56;6.70;99.90
2571;DHT22;1295;51.130;6.732;2023-11-18T03:53:21;6.80;99.90
2571;DHT22;1295;51.130;6.732;2023-11-18T03:55:47;6.70;99.90
2571;DHT22;1295;51.130;6.732;2023-11-18T03:58:13;6.70;99.90
2571;DHT22;1295;51.130;6.732;2023-11-18T04:00:39;6.70;99.90
2571;DHT22;1295;51.130;6.732;2023-11-18T04:03:05;6.70;99.90
2571;DHT22;1295;51.130;6.732;2023-11-18T04:05:31;6.70;99.90
2571;DHT22;1295;51.130;6.732;2023-11-18T04:07:57;6.60;99.90
2571;DHT22;1295;51.130;6.732;2023-11-18T04:10:23;6.80;99.90
2571;DHT22;1295;51.130;6.732;2023-11-18T04:12:49;6.70;99.90
2571;DHT22;1295;51.130;6.732;2023-11-18T04:15:15;6.90;99.90
2571;DHT22;1295;51.130;6.732;2023-11-18T04:17:41;6.80;99.90
2571;DHT22;1295;51.130;6.732;2023-11-18T04:20:08;6.80;99.90
2571;DHT22;1295;51.130;6.732;2023-11-18T04:22:33;6.80;99.90
2571;DHT22;1295;51.130;6.732;2023-11-18T04:24:59;6.90;99.90
2571;DHT22;1295;51.130;6.732;2023-11-18T04:27:25;7.00;99.90
2571;DHT22;1295;51.130;6.732;2023-11-18T04:29:50;6.90;99.90
2571;DHT22;1295;51.130;6.732;2023-11-18T04:32:16;6.90;99.90
2571;DHT22;1295;51.130;6.732;2023-11-18T04:34:42;6.60;99.90
2571;DHT22;1295;51.130;6.732;2023-11-18T04:37:08;6.60;99.90
2571;DHT22;1295;51.130;6.732;2023-11-18T04:39:34;6.70;99.90
2571;DHT22;1295;51.130;6.732;2023-11-18T04:42:00;6.70;99.90
2571;DHT22;1295;51.130;6.732;2023-11-18T04:44:26;6.70;99.90
2571;DHT22;1295;51.130;6.732;2023-11-18T04:46:51;6.90;99.90
2571;DHT22;1295;51.130;6.732;2023-11-18T04:49:17;6.80;99.90
2571;DHT22;1295;51.130;6.732;2023-11-18T04:51:42;6.90;99.90
2571;DHT22;1295;51.130;6.732;2023-11-18T04:54:08;6.80;99.90
2571;DHT22;1295;51.130;6.732;2023-11-18T04:56:34;6.60;99.90
2571;DHT22;1295;51.130;6.732;2023-11-18T04:59:02;6.60;99.90
2571;DHT22;1295;51.130;6.732;2023-11-18T05:01:27;6.70;99.90
2571;DHT22;1295;51.130;6.732;2023-11-18T05:03:52;6.70;99.90
2571;DHT22;1295;51.130;6.732;2023-11-18T05:06:19;6.80;99.90
2571;DHT22;1295;51.130;6.732;2023-11-18T05:08:45;6.80;99.90
2571;DHT22;1295;51.130;6.732;2023-11-18T05:11:11;6.80;99.90
2571;DHT22;1295;51.130;6.732;2023-11-18T05:13:37;6.50;99.90
2571;DHT22;1295;51.130;6.732;2023-11-18T05:16:04;6.50;99.90
2571;DHT22;1295;51.130;6.732;2023-11-18T05:18:30;6.70;99.90
2571;DHT22;1295;51.130;6.732;2023-11-18T05:20:55;6.70;99.90
2571;DHT22;1295;51.130;6.732;2023-11-18T05:23:21;6.90;99.90
2571;DHT22;1295;51.130;6.732;2023-11-18T05:25:47;6.60;99.90
2571;DHT22;1295;51.130;6.732;2023-11-18T05:28:12;6.70;99.90
2571;DHT22;1295;51.130;6.732;2023-11-18T05:30:40;6.90;99.90
2571;DHT22;1295;51.130;6.732;2023-11-18T05:33:04;6.90;99.90
2571;DHT22;1295;51.130;6.732;2023-11-18T05:35:29;6.50;99.90
2571;DHT22;1295;51.130;6.732;2023-11-18T05:37:55;6.50;99.90
2571;DHT22;1295;51.130;6.732;2023-11-18T05:40:21;6.50;99.90
2571;DHT22;1295;51.130;6.732;2023-11-18T05:42:47;6.50;99.90
2571;DHT22;1295;51.130;6.732;2023-11-18T05:45:13;6.50;99.90
2571;DHT22;1295;51.130;6.732;2023-11-18T05:47:39;6.50;99.90
2571;DHT22;1295;51.130;6.732;2023-11-18T05:50:05;6.70;99.90
2571;DHT22;1295;51.130;6.732;2023-11-18T05:52:32;6.60;99.90
2571;DHT22;1295;51.130;6.732;2023-11-18T05:54:57;6.60;99.90
2571;DHT22;1295;51.130;6.732;2023-11-18T05:57:23;6.70;99.90
2571;DHT22;1295;51.130;6.732;2023-11-18T05:59:49;6.70;99.90
2571;DHT22;1295;51.130;6.732;2023-11-18T06:02:14;6.70;99.90
2571;DHT22;1295;51.130;6.732;2023-11-18T06:04:44;6.70;99.90
2571;DHT22;1295;51.130;6.732;2023-11-18T06:07:09;6.90;99.90
2571;DHT22;1295;51.130;6.732;2023-11-18T06:09:35;6.90;99.90
2571;DHT22;1295;51.130;6.732;2023-11-18T06:12:01;6.80;99.90
2571;DHT22;1295;51.130;6.732;2023-11-18T06:14:27;6.80;99.90
2571;DHT22;1295;51.130;6.732;2023-11-18T06:16:53;6.80;99.90
2571;DHT22;1295;51.130;6.732;2023-11-18T06:19:18;6.90;99.90
2571;DHT22;1295;51.130;6.732;2023-11-18T06:21:44;6.70;99.90
2571;DHT22;1295;51.130;6.732;2023-11-18T06:24:10;6.60;99.90
2571;DHT22;1295;51.130;6.732;2023-11-18T06:26:36;6.60;99.90
2571;DHT22;1295;51.130;6.732;2023-11-18T06:29:02;6.70;99.90
2571;DHT22;1295;51.130;6.732;2023-11-18T06:31:28;6.60;99.90
2571;DHT22;1295;51.130;6.732;2023-11-18T06:33:53;6.80;99.90
2571;DHT22;1295;51.130;6.732;2023-11-18T06:36:20;6.70;99.90
2571;DHT22;1295;51.130;6.732;2023-11-18T06:38:47;6.60;99.90
2571;DHT22;1295;51.130;6.732;2023-11-18T06:41:12;6.60;99.90
2571;DHT22;1295;51.130;6.732;2023-11-18T06:43:38;6.30;99.90
2571;DHT22;1295;51.130;6.732;2023-11-18T06:46:09;6.30;99.90
2571;DHT22;1295;51.130;6.732;2023-11-18T06:48:35;6.30;99.90
2571;DHT22;1295;51.130;6.732;2023-11-18T06:51:01;6.60;99.90
2571;DHT22;1295;51.130;6.732;2023-11-18T06:53:27;6.70;99.90
2571;DHT22;1295;51.130;6.732;2023-11-18T06:55:53;6.70;99.90
2571;DHT22;1295;51.130;6.732;2023-11-18T06:58:19;6.80;99.90
2571;DHT22;1295;51.130;6.732;2023-11-18T07:00:44;6.70;99.90
2571;DHT22;1295;51.130;6.732;2023-11-18T07:03:10;6.70;99.90
2571;DHT22;1295;51.130;6.732;2023-11-18T07:05:36;6.70;99.90
2571;DHT22;1295;51.130;6.732;2023-11-18T07:08:01;6.80;99.90
2571;DHT22;1295;51.130;6.732;2023-11-18T07:10:28;6.50;99.90
2571;DHT22;1295;51.130;6.732;2023-11-18T07:12:53;6.60;99.90
2571;DHT22;1295;51.130;6.732;2023-11-18T07:15:19;6.60;99.90
2571;DHT22;1295;51.130;6.732;2023-11-18T07:17:45;6.60;99.90
2571;DHT22;1295;51.130;6.732;2023-11-18T07:20:11;6.60;99.90
2571;DHT22;1295;51.130;6.732;2023-11-18T07:22:37;6.60;99.90
2571;DHT22;1295;51.130;6.732;2023-11-18T07:25:04;6.40;99.90
2571;DHT22;1295;51.130;6.732;2023-11-18T07:27:33;6.40;99.90
2571;DHT22;1295;51.130;6.732;2023-11-18T07:29:56;6.50;99.90
2571;DHT22;1295;51.130;6.732;2023-11-18T07:32:21;6.70;99.90
2571;DHT22;1295;51.130;6.732;2023-11-18T07:34:47;6.60;99.90
2571;DHT22;1295;51.130;6.732;2023-11-18T07:37:14;6.60;99.90
2571;DHT22;1295;51.130;6.732;2023-11-18T07:39:39;6.50;99.90
2571;DHT22;1295;51.130;6.732;2023-11-18T07:42:11;6.50;99.90
2571;DHT22;1295;51.130;6.732;2023-11-18T07:44:36;6.30;99.90
2571;DHT22;1295;51.130;6.732;2023-11-18T07:47:02;6.50;99.90
2571;DHT22;1295;51.130;6.732;2023-11-18T07:49:28;6.50;99.90
2571;DHT22;1295;51.130;6.732;2023-11-18T07:51:54;6.50;99.90
2571;DHT22;1295;51.130;6.732;2023-11-18T07:54:20;6.50;99.90
2571;DHT22;1295;51.130;6.732;2023-11-18T07:56:45;6.50;99.90
2571;DHT22;1295;51.130;6.732;2023-11-18T07:59:11;6.50;99.90
2571;DHT22;1295;51.130;6.732;2023-11-18T08:01:40;6.50;99.90
2571;DHT22;1295;51.130;6.732;2023-11-18T08:04:03;6.50;99.90
2571;DHT22;1295;51.130;6.732;2023-11-18T08:06:29;6.60;99.90
2571;DHT22;1295;51.130;6.732;2023-11-18T08:08:55;6.50;99.90
2571;DHT22;1295;51.130;6.732;2023-11-18T08:11:21;6.50;99.90
2571;DHT22;1295;51.130;6.732;2023-11-18T08:13:47;6.50;99.90
2571;DHT22;1295;51.130;6.732;2023-11-18T08:16:12;6.70;99.90
2571;DHT22;1295;51.130;6.732;2023-11-18T08:18:38;6.50;99.90
2571;DHT22;1295;51.130;6.732;2023-11-18T08:21:04;6.70;99.90
2571;DHT22;1295;51.130;6.732;2023-11-18T08:23:30;6.50;99.90
2571;DHT22;1295;51.130;6.732;2023-11-18T08:25:56;6.50;99.90
2571;DHT22;1295;51.130;6.732;2023-11-18T08:28:21;6.40;99.90
2571;DHT22;1295;51.130;6.732;2023-11-18T08:30:47;6.30;99.90
2571;DHT22;1295;51.130;6.732;2023-11-18T08:33:13;6.60;99.90
2571;DHT22;1295;51.130;6.732;2023-11-18T08:35:38;6.50;99.90
2571;DHT22;1295;51.130;6.732;2023-11-18T08:38:04;6.50;99.90
2571;DHT22;1295;51.130;6.732;2023-11-18T08:40:30;6.60;99.90
2571;DHT22;1295;51.130;6.732;2023-11-18T08:42:55;6.40;99.90
2571;DHT22;1295;51.130;6.732;2023-11-18T08:45:22;6.70;99.90
2571;DHT22;1295;51.130;6.732;2023-11-18T08:47:48;6.70;99.90
2571;DHT22;1295;51.130;6.732;2023-11-18T08:50:15;6.60;99.90
2571;DHT22;1295;51.130;6.732;2023-11-18T08:52:40;6.60;99.90
2571;DHT22;1295;51.130;6.732;2023-11-18T08:55:07;6.70;99.90
2571;DHT22;1295;51.130;6.732;2023-11-18T08:57:38;6.60;99.90
2571;DHT22;1295;51.130;6.732;2023-11-18T09:00:11;6.60;99.90
2571;DHT22;1295;51.130;6.732;2023-11-18T09:02:37;6.70;99.90
2571;DHT22;1295;51.130;6.732;2023-11-18T09:05:03;6.50;99.90
2571;DHT22;1295;51.130;6.732;2023-11-18T09:07:29;6.60;99.90
2571;DHT22;1295;51.130;6.732;2023-11-18T09:09:55;6.60;99.90
2571;DHT22;1295;51.130;6.732;2023-11-18T09:12:21;6.70;99.90
2571;DHT22;1295;51.130;6.732;2023-11-18T09:14:46;6.70;99.90
2571;DHT22;1295;51.130;6.732;2023-11-18T09:17:12;6.70;99.90
2571;DHT22;1295;51.130;6.732;2023-11-18T09:19:37;6.80;99.90
2571;DHT22;1295;51.130;6.732;2023-11-18T09:22:03;6.80;99.90
2571;DHT22;1295;51.130;6.732;2023-11-18T09:24:29;6.80;99.90
2571;DHT22;1295;51.130;6.732;2023-11-18T09:26:54;6.80;99.90
2571;DHT22;1295;51.130;6.732;2023-11-18T09:29:20;6.80;99.90
2571;DHT22;1295;51.130;6.732;2023-11-18T09:31:47;6.80;99.90
2571;DHT22;1295;51.130;6.732;2023-11-18T09:34:12;6.90;99.90
2571;DHT22;1295;51.130;6.732;2023-11-18T09:36:38;6.70;99.90
2571;DHT22;1295;51.130;6.732;2023-11-18T09:39:04;6.70;99.90
2571;DHT22;1295;51.130;6.732;2023-11-18T09:41:29;6.80;99.90
2571;DHT22;1295;51.130;6.732;2023-11-18T09:43:55;6.80;99.90
2571;DHT22;1295;51.130;6.732;2023-11-18T09:46:23;6.70;99.90
2571;DHT22;1295;51.130;6.732;2023-11-18T09:48:49;6.70;99.90
2571;DHT22;1295;51.130;6.732;2023-11-18T09:51:20;6.80;99.90
2571;DHT22;1295;51.130;6.732;2023-11-18T09:53:45;6.90;99.90
2571;DHT22;1295;51.130;6.732;2023-11-18T09:56:10;6.80;99.90
2571;DHT22;1295;51.130;6.732;2023-11-18T09:58:37;6.90;99.90
2571;DHT22;1295;51.130;6.732;2023-11-18T10:01:01;6.90;99.90
2571;DHT22;1295;51.130;6.732;2023-11-18T10:03:27;6.80;99.90
2571;DHT22;1295;51.130;6.732;2023-11-18T10:05:53;6.70;99.90
2571;DHT22;1295;51.130;6.732;2023-11-18T10:08:18;6.80;99.90
2571;DHT22;1295;51.130;6.732;2023-11-18T10:10:50;6.90;99.90
2571;DHT22;1295;51.130;6.732;2023-11-18T10:13:21;6.90;99.90
2571;DHT22;1295;51.130;6.732;2023-11-18T10:15:49;6.90;99.90
2571;DHT22;1295;51.130;6.732;2023-11-18T10:18:13;6.80;99.90
2571;DHT22;1295;51.130;6.732;2023-11-18T10:20:47;6.90;99.90
2571;DHT22;1295;51.130;6.732;2023-11-18T10:23:13;6.80;99.90
2571;DHT22;1295;51.130;6.732;2023-11-18T10:25:50;6.90;99.90
2571;DHT22;1295;51.130;6.732;2023-11-18T10:28:32;6.80;99.90
2571;DHT22;1295;51.130;6.732;2023-11-18T10:31:00;6.80;99.90
2571;DHT22;1295;51.130;6.732;2023-11-18T10:33:25;6.80;99.90
2571;DHT22;1295;51.130;6.732;2023-11-18T10:35:51;6.80;99.90
2571;DHT22;1295;51.130;6.732;2023-11-18T10:38:16;6.90;99.90
2571;DHT22;1295;51.130;6.732;2023-11-18T10:40:42;6.80;99.90
2571;DHT22;1295;51.130;6.732;2023-11-18T10:43:08;6.90;99.90
2571;DHT22;1295;51.130;6.732;2023-11-18T10:45:34;6.90;99.90
2571;DHT22;1295;51.130;6.732;2023-11-18T10:47:59;6.80;99.90
2571;DHT22;1295;51.130;6.732;2023-11-18T10:50:25;6.90;99.90
2571;DHT22;1295;51.130;6.732;2023-11-18T10:52:51;6.80;99.90
2571;DHT22;1295;51.130;6.732;2023-11-18T10:55:17;6.80;99.90
2571;DHT22;1295;51.130;6.732;2023-11-18T10:57:42;6.90;99.90
2571;DHT22;1295;51.130;6.732;2023-11-18T11:00:09;6.80;99.90
2571;DHT22;1295;51.130;6.732;2023-11-18T11:02:39;6.90;99.90
2571;DHT22;1295;51.130;6.732;2023-11-18T11:05:05;6.90;99.90
2571;DHT22;1295;51.130;6.732;2023-11-18T11:07:32;6.90;99.90
2571;DHT22;1295;51.130;6.732;2023-11-18T11:09:59;6.70;99.90
2571;DHT22;1295;51.130;6.732;2023-11-18T11:12:25;6.70;99.90
2571;DHT22;1295;51.130;6.732;2023-11-18T11:14:58;6.70;99.90
2571;DHT22;1295;51.130;6.732;2023-11-18T11:17:23;6.90;99.90
2571;DHT22;1295;51.130;6.732;2023-11-18T11:19:50;6.70;99.90
2571;DHT22;1295;51.130;6.732;2023-11-18T11:22:17;6.70;99.90
2571;DHT22;1295;51.130;6.732;2023-11-18T11:25:01;6.70;99.90
2571;DHT22;1295;51.130;6.732;2023-11-18T11:27:25;6.70;99.90
2571;DHT22;1295;51.130;6.732;2023-11-18T11:29:50;6.80;99.90
2571;DHT22;1295;51.130;6.732;2023-11-18T11:32:32;6.70;99.90
2571;DHT22;1295;51.130;6.732;2023-11-18T11:35:01;6.80;99.90
2571;DHT22;1295;51.130;6.732;2023-11-18T11:37:23;6.70;99.90
2571;DHT22;1295;51.130;6.732;2023-11-18T11:39:48;6.90;99.90
2571;DHT22;1295;51.130;6.732;2023-11-18T11:42:14;6.90;99.90
2571;DHT22;1295;51.130;6.732;2023-11-18T11:44:39;6.90;99.90
2571;DHT22;1295;51.130;6.732;2023-11-18T11:47:05;6.90;99.90
2571;DHT22;1295;51.130;6.732;2023-11-18T11:49:34;6.90;99.90
2571;DHT22;1295;51.130;6.732;2023-11-18T11:52:01;7.00;99.90
2571;DHT22;1295;51.130;6.732;2023-11-18T11:54:24;7.00;99.90
2571;DHT22;1295;51.130;6.732;2023-11-18T11:56:49;7.00;99.90
2571;DHT22;1295;51.130;6.732;2023-11-18T11:59:16;6.90;99.90
2571;DHT22;1295;51.130;6.732;2023-11-18T12:01:47;6.90;99.90
2571;DHT22;1295;51.130;6.732;2023-11-18T12:04:14;7.00;99.90
2571;DHT22;1295;51.130;6.732;2023-11-18T12:06:47;7.00;99.90
2571;DHT22;1295;51.130;6.732;2023-11-18T12:09:14;7.10;99.90
2571;DHT22;1295;51.130;6.732;2023-11-18T12:11:41;7.10;99.90
2571;DHT22;1295;51.130;6.732;2023-11-18T12:14:07;7.10;99.90
2571;DHT22;1295;51.130;6.732;2023-11-18T12:21:54;7.10;99.90
2571;DHT22;1295;51.130;6.732;2023-11-18T12:24:20;7.10;99.90
2571;DHT22;1295;51.130;6.732;2023-11-18T12:26:45;7.10;99.90
2571;DHT22;1295;51.130;6.732;2023-11-18T12:31:49;7.10;99.90
2571;DHT22;1295;51.130;6.732;2023-11-18T12:34:20;7.10;99.90
2571;DHT22;1295;51.130;6.732;2023-11-18T12:36:53;7.20;99.90
2571;DHT22;1295;51.130;6.732;2023-11-18T12:39:27;7.20;99.90
2571;DHT22;1295;51.130;6.732;2023-11-18T12:42:01;7.20;99.90
2571;DHT22;1295;51.130;6.732;2023-11-18T12:44:36;7.20;99.90
2571;DHT22;1295;51.130;6.732;2023-11-18T12:47:02;7.10;99.90
2571;DHT22;1295;51.130;6.732;2023-11-18T12:49:28;7.20;99.90
2571;DHT22;1295;51.130;6.732;2023-11-18T12:51:55;7.20;99.90
2571;DHT22;1295;51.130;6.732;2023-11-18T12:54:21;7.20;99.90
2571;DHT22;1295;51.130;6.732;2023-11-18T12:56:46;7.20;99.90
2571;DHT22;1295;51.130;6.732;2023-11-18T12:59:12;7.10;99.90
2571;DHT22;1295;51.130;6.732;2023-11-18T13:01:38;7.10;99.90
2571;DHT22;1295;51.130;6.732;2023-11-18T13:04:04;7.20;99.90
2571;DHT22;1295;51.130;6.732;2023-11-18T13:06:29;7.20;99.90
2571;DHT22;1295;51.130;6.732;2023-11-18T13:08:55;7.30;99.90
2571;DHT22;1295;51.130;6.732;2023-11-18T13:11:22;7.20;99.90
2571;DHT22;1295;51.130;6.732;2023-11-18T13:13:47;7.30;99.90
2571;DHT22;1295;51.130;6.732;2023-11-18T13:16:13;7.30;99.90
2571;DHT22;1295;51.130;6.732;2023-11-18T13:18:41;7.30;99.90
2571;DHT22;1295;51.130;6.732;2023-11-18T13:21:06;7.30;99.90
2571;DHT22;1295;51.130;6.732;2023-11-18T13:23:32;7.30;99.90
2571;DHT22;1295;51.130;6.732;2023-11-18T13:25:58;7.30;99.90
2571;DHT22;1295;51.130;6.732;2023-11-18T13:28:25;7.30;99.90
2571;DHT22;1295;51.130;6.732;2023-11-18T13:30:51;7.40;99.90
2571;DHT22;1295;51.130;6.732;2023-11-18T13:33:17;7.40;99.90
2571;DHT22;1295;51.130;6.732;2023-11-18T13:35:43;7.40;99.90
2571;DHT22;1295;51.130;6.732;2023-11-18T13:38:09;7.30;99.90
2571;DHT22;1295;51.130;6.732;2023-11-18T13:40:41;7.40;99.90
2571;DHT22;1295;51.130;6.732;2023-11-18T13:43:06;7.30;99.90
2571;DHT22;1295;51.130;6.732;2023-11-18T13:45:32;7.30;99.90
2571;DHT22;1295;51.130;6.732;2023-11-18T13:47:59;7.40;99.90
2571;DHT22;1295;51.130;6.732;2023-11-18T13:50:23;7.30;99.90
2571;DHT22;1295;51.130;6.732;2023-11-18T13:52:49;7.30;99.90
2571;DHT22;1295;51.130;6.732;2023-11-18T13:55:15;7.30;99.90
2571;DHT22;1295;51.130;6.732;2023-11-18T13:57:41;7.30;99.90
2571;DHT22;1295;51.130;6.732;2023-11-18T14:00:07;7.30;99.90
2571;DHT22;1295;51.130;6.732;2023-11-18T14:02:33;7.30;99.90
2571;DHT22;1295;51.130;6.732;2023-11-18T14:04:59;7.40;99.90
2571;DHT22;1295;51.130;6.732;2023-11-18T14:07:25;7.40;99.90
2571;DHT22;1295;51.130;6.732;2023-11-18T14:09:50;7.40;99.90
2571;DHT22;1295;51.130;6.732;2023-11-18T14:12:17;7.30;99.90
2571;DHT22;1295;51.130;6.732;2023-11-18T14:14:43;7.30;99.90
2571;DHT22;1295;51.130;6.732;2023-11-18T14:17:08;7.30;99.90
2571;DHT22;1295;51.130;6.732;2023-11-18T14:19:34;7.40;99.90
2571;DHT22;1295;51.130;6.732;2023-11-18T14:21:59;7.40;99.90
2571;DHT22;1295;51.130;6.732;2023-11-18T14:24:25;7.40;99.90
2571;DHT22;1295;51.130;6.732;2023-11-18T14:26:51;7.30;99.90
2571;DHT22;1295;51.130;6.732;2023-11-18T14:29:16;7.30;99.90
2571;DHT22;1295;51.130;6.732;2023-11-18T14:31:42;7.40;99.90
2571;DHT22;1295;51.130;6.732;2023-11-18T14:34:09;7.30;99.90
2571;DHT22;1295;51.130;6.732;2023-11-18T14:36:34;7.30;99.90
2571;DHT22;1295;51.130;6.732;2023-11-18T14:39:01;7.30;99.90
2571;DHT22;1295;51.130;6.732;2023-11-18T14:41:26;7.30;99.90
2571;DHT22;1295;51.130;6.732;2023-11-18T14:43:52;7.40;99.90
2571;DHT22;1295;51.130;6.732;2023-11-18T14:46:18;7.30;99.90
2571;DHT22;1295;51.130;6.732;2023-11-18T14:48:44;7.40;99.90
2571;DHT22;1295;51.130;6.732;2023-11-18T14:51:10;7.30;99.90
2571;DHT22;1295;51.130;6.732;2023-11-18T14:53:36;7.40;99.90
2571;DHT22;1295;51.130;6.732;2023-11-18T14:56:01;7.40;99.90
2571;DHT22;1295;51.130;6.732;2023-11-18T14:58:27;7.40;99.90
2571;DHT22;1295;51.130;6.732;2023-11-18T15:00:53;7.40;99.90
2571;DHT22;1295;51.130;6.732;2023-11-18T15:03:19;7.40;99.90
2571;DHT22;1295;51.130;6.732;2023-11-18T15:05:50;7.40;99.90
2571;DHT22;1295;51.130;6.732;2023-11-18T15:08:16;7.40;99.90
2571;DHT22;1295;51.130;6.732;2023-11-18T15:10:42;7.40;99.90
2571;DHT22;1295;51.130;6.732;2023-11-18T15:13:08;7.50;99.90
2571;DHT22;1295;51.130;6.732;2023-11-18T15:15:34;7.50;99.90
2571;DHT22;1295;51.130;6.732;2023-11-18T15:18:01;7.40;99.90
2571;DHT22;1295;51.130;6.732;2023-11-18T15:20:26;7.40;99.90
2571;DHT22;1295;51.130;6.732;2023-11-18T15:22:53;7.40;99.90
2571;DHT22;1295;51.130;6.732;2023-11-18T15:25:18;7.40;99.90
2571;DHT22;1295;51.130;6.732;2023-11-18T15:27:44;7.40;99.90
2571;DHT22;1295;51.130;6.732;2023-11-18T15:30:11;7.40;99.90
2571;DHT22;1295;51.130;6.732;2023-11-18T15:32:39;7.40;99.90
2571;DHT22;1295;51.130;6.732;2023-11-18T15:35:05;7.40;99.90
2571;DHT22;1295;51.130;6.732;2023-11-18T15:37:31;7.50;99.90
2571;DHT22;1295;51.130;6.732;2023-11-18T15:39:56;7.40;99.90
2571;DHT22;1295;51.130;6.732;2023-11-18T15:42:22;7.50;99.90
2571;DHT22;1295;51.130;6.732;2023-11-18T15:44:48;7.50;99.90
2571;DHT22;1295;51.130;6.732;2023-11-18T15:47:13;7.50;99.90
2571;DHT22;1295;51.130;6.732;2023-11-18T15:49:40;7.40;99.90
2571;DHT22;1295;51.130;6.732;2023-11-18T15:52:06;7.40;99.90
2571;DHT22;1295;51.130;6.732;2023-11-18T15:54:32;7.40;99.90
2571;DHT22;1295;51.130;6.732;2023-11-18T15:56:58;7.40;99.90
2571;DHT22;1295;51.130;6.732;2023-11-18T15:59:23;7.50;99.90
2571;DHT22;1295;51.130;6.732;2023-11-18T16:01:49;7.40;99.90
2571;DHT22;1295;51.130;6.732;2023-11-18T16:04:20;7.50;99.90
2571;DHT22;1295;51.130;6.732;2023-11-18T16:06:56;7.40;99.90
2571;DHT22;1295;51.130;6.732;2023-11-18T16:09:22;7.40;99.90
2571;DHT22;1295;51.130;6.732;2023-11-18T16:11:47;7.30;99.90
2571;DHT22;1295;51.130;6.732;2023-11-18T16:14:14;7.60;99.90
2571;DHT22;1295;51.130;6.732;2023-11-18T16:16:39;7.60;99.90
2571;DHT22;1295;51.130;6.732;2023-11-18T16:19:05;7.50;99.90